createdAt,value
2023-02-19T00:00:34.106Z,36.30
2023-02-19T00:01:46.887Z,46.97
2023-02-19T00:02:58.319Z,34.53
2023-02-19T00:04:14.400Z,23.05
2023-02-19T00:05:25.818Z,41.38
2023-02-19T00:06:37.332Z,40.58
2023-02-19T00:07:48.737Z,42.35
2023-02-19T00:09:00.463Z,41.70
2023-02-19T00:10:11.900Z,30.30
2023-02-19T00:11:24.482Z,22.98
2023-02-19T00:12:36.008Z,28.25
2023-02-19T00:13:48.698Z,24.80
2023-02-19T00:15:00.177Z,21.65
2023-02-19T00:16:19.289Z,24.27
2023-02-19T00:17:31.307Z,20.50
2023-02-19T00:18:43.194Z,18.80
2023-02-19T00:19:54.731Z,16.60
2023-02-19T00:21:06.285Z,12.57
2023-02-19T00:22:17.886Z,12.30
2023-02-19T00:23:29.422Z,17.10
2023-02-19T00:24:40.851Z,17.42
2023-02-19T00:25:52.362Z,17.17
2023-02-19T00:27:03.787Z,14.68
2023-02-19T00:28:15.242Z,18.63
2023-02-19T00:29:27.515Z,16.58
2023-02-19T00:30:38.998Z,13.60
2023-02-19T00:31:50.580Z,15.35
2023-02-19T00:33:02.048Z,20.55
2023-02-19T00:34:13.854Z,18.30
2023-02-19T00:35:25.272Z,15.15
2023-02-19T00:36:37.769Z,19.92
2023-02-19T00:37:49.365Z,19.08
2023-02-19T00:39:00.814Z,12.73
2023-02-19T00:40:12.388Z,17.88
2023-02-19T00:41:24.596Z,15.45
2023-02-19T00:42:36.013Z,15.73
2023-02-19T00:44:04.700Z,26.35
2023-02-19T00:45:16.167Z,15.43
2023-02-19T00:46:29.315Z,14.13
2023-02-19T00:47:40.778Z,14.63
2023-02-19T00:48:52.689Z,18.23
2023-02-19T00:50:04.171Z,18.15
2023-02-19T00:51:16.050Z,14.90
2023-02-19T00:52:27.486Z,20.50
2023-02-19T00:53:39.013Z,17.73
2023-02-19T00:54:50.439Z,14.60
2023-02-19T00:56:01.903Z,13.88
2023-02-19T00:57:13.320Z,14.60
2023-02-19T00:58:24.764Z,16.77
2023-02-19T00:59:36.940Z,15.48
2023-02-19T01:00:48.392Z,15.55
2023-02-19T01:01:59.977Z,18.40
2023-02-19T01:03:11.422Z,13.70
2023-02-19T01:04:22.888Z,13.55
2023-02-19T01:05:34.316Z,14.40
2023-02-19T01:06:45.754Z,18.02
2023-02-19T01:07:57.249Z,9.88
2023-02-19T01:09:08.692Z,12.68
2023-02-19T01:10:20.107Z,7.72
2023-02-19T01:11:31.644Z,10.23
2023-02-19T01:12:43.112Z,9.52
2023-02-19T01:13:58.489Z,9.52
2023-02-19T01:15:10.070Z,13.40
2023-02-19T01:16:23.965Z,10.70
2023-02-19T01:17:35.951Z,13.02
2023-02-19T01:18:48.024Z,11.82
2023-02-19T01:19:59.467Z,8.93
2023-02-19T01:21:15.929Z,11.05
2023-02-19T01:22:27.404Z,9.13
2023-02-19T01:23:38.990Z,12.43
2023-02-19T01:24:50.440Z,9.27
2023-02-19T01:26:06.340Z,9.20
2023-02-19T01:27:17.816Z,7.13
2023-02-19T01:28:29.614Z,13.32
2023-02-19T01:29:42.306Z,12.38
2023-02-19T01:30:53.974Z,9.73
2023-02-19T01:32:05.699Z,10.73
2023-02-19T01:33:17.241Z,9.15
2023-02-19T01:34:33.297Z,11.35
2023-02-19T01:35:44.780Z,9.15
2023-02-19T01:36:56.258Z,11.07
2023-02-19T01:38:08.366Z,13.02
2023-02-19T01:39:19.784Z,11.10
2023-02-19T01:40:31.186Z,9.15
2023-02-19T01:41:43.363Z,11.77
2023-02-19T01:42:54.807Z,17.67
2023-02-19T01:44:08.073Z,12.35
2023-02-19T01:45:27.754Z,16.08
2023-02-19T01:46:40.336Z,21.90
2023-02-19T01:47:55.371Z,26.02
2023-02-19T01:49:06.790Z,39.80
2023-02-19T01:50:18.423Z,43.65
2023-02-19T01:51:31.112Z,35.25
2023-02-19T01:52:42.598Z,38.55
2023-02-19T01:53:56.484Z,38.83
2023-02-19T01:55:10.784Z,53.15
2023-02-19T01:56:23.324Z,32.40
2023-02-19T01:57:38.173Z,28.02
2023-02-19T01:58:49.854Z,20.83
2023-02-19T02:00:08.976Z,25.30
2023-02-19T02:01:20.405Z,23.70
2023-02-19T02:02:31.864Z,19.35
2023-02-19T02:03:45.327Z,24.35
2023-02-19T02:04:57.444Z,11.52
2023-02-19T02:06:15.957Z,14.05
2023-02-19T02:07:46.133Z,31.08
2023-02-19T02:09:16.959Z,15.40
2023-02-19T02:10:28.444Z,14.88
2023-02-19T02:11:42.348Z,12.38
2023-02-19T02:12:56.892Z,11.77
2023-02-19T02:14:08.491Z,10.80
2023-02-19T02:15:20.019Z,10.27
2023-02-19T02:16:31.686Z,11.45
2023-02-19T02:17:43.183Z,7.45
2023-02-19T02:19:12.746Z,11.52
2023-02-19T02:20:24.181Z,7.90
2023-02-19T02:21:44.047Z,10.25
2023-02-19T02:23:15.725Z,11.90
2023-02-19T02:24:42.530Z,13.10
2023-02-19T02:26:03.213Z,17.25
2023-02-19T02:27:17.887Z,16.02
2023-02-19T02:28:47.638Z,16.98
2023-02-19T02:29:59.115Z,13.85
2023-02-19T02:31:15.031Z,13.25
2023-02-19T02:32:33.102Z,16.73
2023-02-19T02:33:50.379Z,19.63
2023-02-19T02:35:05.611Z,27.88
2023-02-19T02:36:18.175Z,33.25
2023-02-19T02:37:34.621Z,23.83
2023-02-19T02:38:47.040Z,47.22
2023-02-19T02:39:58.655Z,28.90
2023-02-19T02:41:10.541Z,19.23
2023-02-19T02:42:28.275Z,32.20
2023-02-19T02:43:39.793Z,25.70
2023-02-19T02:45:09.619Z,24.95
2023-02-19T02:46:28.156Z,20.98
2023-02-19T02:47:52.607Z,23.40
2023-02-19T02:49:06.535Z,21.73
2023-02-19T02:50:17.978Z,19.25
2023-02-19T02:51:31.493Z,19.35
2023-02-19T02:53:02.620Z,19.88
2023-02-19T02:54:34.865Z,13.60
2023-02-19T02:55:48.576Z,12.35
2023-02-19T02:57:00.465Z,16.65
2023-02-19T02:58:13.055Z,16.65
2023-02-19T02:59:26.092Z,19.42
2023-02-19T03:00:56.505Z,18.40
2023-02-19T03:02:21.007Z,13.85
2023-02-19T03:03:32.655Z,12.20
2023-02-19T03:05:21.613Z,14.35
2023-02-19T03:06:34.808Z,15.55
2023-02-19T03:07:52.143Z,11.88
2023-02-19T03:09:21.383Z,15.80
2023-02-19T03:10:48.064Z,19.85
2023-02-19T03:12:21.372Z,15.85
2023-02-19T03:13:53.717Z,19.40
2023-02-19T03:15:27.686Z,17.60
2023-02-19T03:16:58.451Z,7.05
2023-02-19T03:18:30.381Z,8.52
2023-02-19T03:19:44.026Z,9.27
2023-02-19T03:20:57.870Z,11.98
2023-02-19T03:22:12.375Z,14.82
2023-02-19T03:23:46.026Z,11.30
2023-02-19T03:25:19.554Z,9.77
2023-02-19T03:26:32.896Z,19.45
2023-02-19T03:27:45.005Z,21.08
2023-02-19T03:29:16.334Z,21.55
2023-02-19T03:30:30.627Z,22.15
2023-02-19T03:31:43.588Z,23.52
2023-02-19T03:32:56.868Z,30.02
2023-02-19T03:34:10.213Z,35.47
2023-02-19T03:35:23.349Z,29.05
2023-02-19T03:36:44.355Z,25.58
2023-02-19T03:37:55.803Z,19.88
2023-02-19T03:39:08.584Z,23.33
2023-02-19T03:40:20.729Z,22.67
2023-02-19T03:41:35.327Z,26.13
2023-02-19T03:42:58.846Z,33.72
2023-02-19T03:44:18.771Z,23.80
2023-02-19T03:45:52.406Z,27.02
2023-02-19T03:47:19.829Z,30.10
2023-02-19T03:48:35.745Z,25.58
2023-02-19T03:50:05.967Z,37.25
2023-02-19T03:51:38.055Z,35.40
2023-02-19T03:53:09.705Z,29.10
2023-02-19T03:54:32.523Z,23.67
2023-02-19T03:55:56.268Z,27.38
2023-02-19T03:57:13.494Z,30.08
2023-02-19T03:58:28.708Z,27.52
2023-02-19T03:59:40.148Z,21.92
2023-02-19T04:00:58.917Z,36.75
2023-02-19T04:02:14.999Z,44.42
2023-02-19T04:03:34.418Z,49.30
2023-02-19T04:04:50.525Z,45.67
2023-02-19T04:06:04.745Z,27.20
2023-02-19T04:07:16.296Z,25.95
2023-02-19T04:08:28.322Z,25.48
2023-02-19T04:09:42.799Z,26.90
2023-02-19T04:10:54.782Z,21.42
2023-02-19T04:12:06.852Z,15.68
2023-02-19T04:13:20.663Z,15.63
2023-02-19T04:14:35.582Z,25.40
2023-02-19T04:15:48.365Z,19.77
2023-02-19T04:17:01.849Z,24.10
2023-02-19T04:18:25.088Z,13.00
2023-02-19T04:19:37.814Z,17.35
2023-02-19T04:20:50.472Z,13.05
2023-02-19T04:22:02.225Z,13.25
2023-02-19T04:23:15.801Z,16.33
2023-02-19T04:24:33.487Z,15.40
2023-02-19T04:25:45.772Z,9.10
2023-02-19T04:26:58.462Z,12.07
2023-02-19T04:28:09.951Z,10.40
2023-02-19T04:29:21.434Z,11.93
2023-02-19T04:30:33.055Z,20.05
2023-02-19T04:31:44.685Z,8.65
2023-02-19T04:32:56.138Z,6.88
2023-02-19T04:34:07.673Z,10.52
2023-02-19T04:35:19.122Z,12.55
2023-02-19T04:36:31.649Z,13.93
2023-02-19T04:37:43.442Z,16.38
2023-02-19T04:38:54.857Z,10.98
2023-02-19T04:40:06.540Z,7.28
2023-02-19T04:41:17.961Z,11.73
2023-02-19T04:42:29.424Z,19.85
2023-02-19T04:43:40.917Z,29.67
2023-02-19T04:44:52.361Z,34.88
2023-02-19T04:46:04.163Z,21.27
2023-02-19T04:47:19.069Z,19.55
2023-02-19T04:48:30.565Z,24.83
2023-02-19T04:49:42.008Z,29.25
2023-02-19T04:50:53.562Z,41.45
2023-02-19T04:52:05.039Z,34.53
2023-02-19T04:53:16.465Z,39.88
2023-02-19T04:54:27.907Z,40.25
2023-02-19T04:55:39.622Z,31.48
2023-02-19T04:56:51.147Z,33.15
2023-02-19T04:58:02.613Z,26.58
2023-02-19T04:59:14.016Z,25.58
2023-02-19T05:00:25.470Z,27.90
2023-02-19T05:01:36.988Z,29.38
2023-02-19T05:02:48.496Z,26.88
2023-02-19T05:03:59.949Z,25.15
2023-02-19T05:05:11.574Z,28.20
2023-02-19T05:06:23.038Z,20.58
2023-02-19T05:07:34.486Z,25.02
2023-02-19T05:08:45.989Z,27.30
2023-02-19T05:09:58.485Z,32.78
2023-02-19T05:11:11.234Z,27.50
2023-02-19T05:12:22.869Z,28.30
2023-02-19T05:13:34.454Z,25.08
2023-02-19T05:14:45.938Z,28.50
2023-02-19T05:16:01.513Z,27.92
2023-02-19T05:17:12.990Z,25.60
2023-02-19T05:18:24.811Z,32.03
2023-02-19T05:19:36.304Z,30.58
2023-02-19T05:20:47.747Z,34.08
2023-02-19T05:21:59.193Z,34.03
2023-02-19T05:23:10.610Z,36.08
2023-02-19T05:24:24.402Z,35.50
2023-02-19T05:25:35.850Z,35.17
2023-02-19T05:26:48.323Z,27.70
2023-02-19T05:28:17.050Z,29.15
2023-02-19T05:29:30.453Z,26.25
2023-02-19T05:30:42.061Z,32.13
2023-02-19T05:31:53.657Z,27.48
2023-02-19T05:33:05.225Z,26.27
2023-02-19T05:34:16.710Z,31.55
2023-02-19T05:35:28.165Z,31.63
2023-02-19T05:36:39.614Z,37.25
2023-02-19T05:37:51.056Z,26.40
2023-02-19T05:39:02.615Z,27.95
2023-02-19T05:40:14.152Z,25.35
2023-02-19T05:41:26.780Z,51.95
2023-02-19T05:42:38.220Z,43.22
2023-02-19T05:43:50.386Z,44.63
2023-02-19T05:45:01.886Z,28.05
2023-02-19T05:46:14.575Z,28.08
2023-02-19T05:47:26.264Z,23.83
2023-02-19T05:48:37.733Z,34.83
2023-02-19T05:49:49.206Z,40.35
2023-02-19T05:51:04.413Z,41.38
2023-02-19T05:52:15.964Z,48.03
2023-02-19T05:53:27.416Z,40.72
2023-02-19T05:54:38.904Z,37.88
2023-02-19T05:55:50.340Z,29.58
2023-02-19T05:57:01.840Z,22.45
2023-02-19T05:58:13.610Z,29.85
2023-02-19T05:59:25.802Z,32.60
2023-02-19T06:00:37.241Z,36.45
2023-02-19T06:01:49.940Z,49.25
2023-02-19T06:03:01.886Z,40.42
2023-02-19T06:04:14.190Z,41.80
2023-02-19T06:05:25.763Z,52.70
2023-02-19T06:06:37.552Z,43.75
2023-02-19T06:07:50.547Z,44.03
2023-02-19T06:09:02.046Z,39.00
2023-02-19T06:10:13.544Z,54.00
2023-02-19T06:11:25.458Z,62.17
2023-02-19T06:12:37.319Z,52.95
2023-02-19T06:13:50.285Z,58.83
2023-02-19T06:15:01.832Z,74.25
2023-02-19T06:16:13.385Z,68.80
2023-02-19T06:17:24.993Z,73.13
2023-02-19T06:18:36.785Z,79.93
2023-02-19T06:19:48.208Z,118.20
2023-02-19T06:21:02.968Z,68.55
2023-02-19T06:22:15.405Z,42.53
2023-02-19T06:23:28.087Z,40.22
2023-02-19T06:24:39.656Z,41.33
2023-02-19T06:25:51.133Z,57.75
2023-02-19T06:27:05.117Z,48.45
2023-02-19T06:28:16.592Z,42.92
2023-02-19T06:29:28.016Z,60.28
2023-02-19T06:30:39.693Z,64.60
2023-02-19T06:31:51.308Z,53.95
2023-02-19T06:33:02.964Z,58.95
2023-02-19T06:34:14.435Z,51.65
2023-02-19T06:35:25.899Z,49.85
2023-02-19T06:36:37.362Z,96.90
2023-02-19T06:37:49.328Z,55.65
2023-02-19T06:39:01.307Z,63.30
2023-02-19T06:40:12.855Z,49.60
2023-02-19T06:41:24.314Z,55.20
2023-02-19T06:42:36.209Z,39.60
2023-02-19T06:43:47.761Z,39.28
2023-02-19T06:44:59.208Z,33.97
2023-02-19T06:46:11.919Z,33.05
2023-02-19T06:47:25.542Z,36.30
2023-02-19T06:48:38.663Z,33.13
2023-02-19T06:49:50.336Z,44.60
2023-02-19T06:51:01.995Z,35.35
2023-02-19T06:52:13.500Z,40.85
2023-02-19T06:53:25.012Z,32.25
2023-02-19T06:54:36.501Z,27.60
2023-02-19T06:55:56.843Z,29.40
2023-02-19T06:57:08.359Z,32.13
2023-02-19T06:58:20.932Z,33.30
2023-02-19T06:59:32.350Z,31.80
2023-02-19T07:00:43.831Z,30.25
2023-02-19T07:01:56.209Z,23.73
2023-02-19T07:03:07.751Z,29.13
2023-02-19T07:04:19.418Z,33.10
2023-02-19T07:05:30.846Z,43.15
2023-02-19T07:06:42.383Z,40.85
2023-02-19T07:07:54.263Z,39.58
2023-02-19T07:09:06.816Z,33.58
2023-02-19T07:10:18.256Z,23.10
2023-02-19T07:11:30.935Z,29.15
2023-02-19T07:12:42.391Z,23.90
2023-02-19T07:13:57.220Z,25.98
2023-02-19T07:15:08.935Z,31.15
2023-02-19T07:16:20.485Z,21.92
2023-02-19T07:17:31.936Z,24.45
2023-02-19T07:18:43.422Z,33.13
2023-02-19T07:19:54.831Z,27.80
2023-02-19T07:21:11.061Z,29.20
2023-02-19T07:22:22.734Z,32.67
2023-02-19T07:23:34.292Z,27.50
2023-02-19T07:24:47.864Z,25.45
2023-02-19T07:25:59.645Z,22.85
2023-02-19T07:27:11.168Z,27.92
2023-02-19T07:28:22.707Z,33.78
2023-02-19T07:29:34.211Z,35.47
2023-02-19T07:30:45.999Z,37.47
2023-02-19T07:31:57.697Z,34.08
2023-02-19T07:33:10.683Z,34.97
2023-02-19T07:34:22.235Z,32.03
2023-02-19T07:35:33.722Z,37.30
2023-02-19T07:36:45.131Z,45.83
2023-02-19T07:37:56.742Z,38.42
2023-02-19T07:39:10.138Z,33.50
2023-02-19T07:40:21.919Z,36.45
2023-02-19T07:41:33.691Z,44.28
2023-02-19T07:42:45.204Z,47.13
2023-02-19T07:43:56.717Z,53.53
2023-02-19T07:45:08.196Z,53.63
2023-02-19T07:46:19.996Z,70.13
2023-02-19T07:47:31.517Z,56.47
2023-02-19T07:48:43.510Z,44.35
2023-02-19T07:49:55.014Z,39.92
2023-02-19T07:51:08.016Z,47.38
2023-02-19T07:52:19.854Z,25.15
2023-02-19T07:53:31.768Z,21.73
2023-02-19T07:54:43.252Z,22.23
2023-02-19T07:55:58.679Z,20.45
2023-02-19T07:57:10.217Z,24.30
2023-02-19T07:58:22.169Z,16.33
2023-02-19T07:59:34.648Z,18.02
2023-02-19T08:00:46.221Z,16.42
2023-02-19T08:02:16.500Z,22.65
2023-02-19T08:03:29.130Z,20.08
2023-02-19T08:04:40.688Z,20.40
2023-02-19T08:05:54.007Z,21.08
2023-02-19T08:07:05.695Z,20.85
2023-02-19T08:08:17.647Z,26.20
2023-02-19T08:09:29.278Z,20.85
2023-02-19T08:10:59.451Z,22.85
2023-02-19T08:12:29.988Z,16.15
2023-02-19T08:13:41.564Z,17.98
2023-02-19T08:14:53.121Z,17.48
2023-02-19T08:16:17.035Z,15.50
2023-02-19T08:17:31.854Z,15.30
2023-02-19T08:18:43.889Z,19.65
2023-02-19T08:19:55.435Z,16.27
2023-02-19T08:21:06.982Z,14.65
2023-02-19T08:22:18.564Z,11.65
2023-02-19T08:23:29.998Z,20.75
2023-02-19T08:24:43.049Z,19.58
2023-02-19T08:25:58.978Z,20.58
2023-02-19T08:27:10.479Z,20.23
2023-02-19T08:28:21.960Z,12.45
2023-02-19T08:29:35.073Z,14.88
2023-02-19T08:30:47.069Z,16.48
2023-02-19T08:31:58.644Z,21.85
2023-02-19T08:33:10.517Z,10.55
2023-02-19T08:34:22.217Z,13.07
2023-02-19T08:35:36.798Z,22.00
2023-02-19T08:36:48.531Z,21.17
2023-02-19T08:37:59.955Z,16.42
2023-02-19T08:39:11.440Z,14.88
2023-02-19T08:40:23.019Z,18.52
2023-02-19T08:41:34.539Z,19.85
2023-02-19T08:42:45.955Z,16.42
2023-02-19T08:43:57.424Z,16.50
2023-02-19T08:45:09.213Z,15.20
2023-02-19T08:46:21.326Z,14.88
2023-02-19T08:47:34.962Z,19.67
2023-02-19T08:48:46.513Z,17.20
2023-02-19T08:49:57.986Z,18.08
2023-02-19T08:51:11.166Z,12.63
2023-02-19T08:52:22.913Z,15.20
2023-02-19T08:53:35.046Z,11.75
2023-02-19T08:54:46.588Z,15.27
2023-02-19T08:55:58.196Z,14.10
2023-02-19T08:57:09.657Z,16.30
2023-02-19T08:58:21.336Z,12.30
2023-02-19T08:59:32.762Z,12.15
2023-02-19T09:00:44.374Z,15.55
2023-02-19T09:01:55.814Z,12.85
2023-02-19T09:03:07.313Z,13.43
2023-02-19T09:04:18.844Z,13.00
2023-02-19T09:05:30.318Z,10.57
2023-02-19T09:06:41.794Z,10.57
2023-02-19T09:07:53.245Z,13.65
2023-02-19T09:09:04.998Z,12.55
2023-02-19T09:10:16.459Z,13.20
2023-02-19T09:11:27.901Z,14.38
2023-02-19T09:12:40.504Z,24.88
2023-02-19T09:13:51.924Z,13.68
2023-02-19T09:15:03.859Z,14.07
2023-02-19T09:16:15.285Z,12.30
2023-02-19T09:17:27.439Z,11.45
2023-02-19T09:18:38.977Z,15.45
2023-02-19T09:19:50.939Z,22.27
2023-02-19T09:21:04.739Z,14.02
2023-02-19T09:22:16.229Z,15.48
2023-02-19T09:23:27.956Z,19.77
2023-02-19T09:24:39.576Z,17.10
2023-02-19T09:25:56.763Z,20.23
2023-02-19T09:27:08.194Z,21.23
2023-02-19T09:28:21.213Z,17.55
2023-02-19T09:29:34.516Z,12.98
2023-02-19T09:30:45.997Z,14.65
2023-02-19T09:32:01.453Z,16.95
2023-02-19T09:33:12.932Z,16.48
2023-02-19T09:34:25.058Z,13.38
2023-02-19T09:35:42.529Z,15.85
2023-02-19T09:36:54.609Z,14.50
2023-02-19T09:38:06.162Z,12.65
2023-02-19T09:39:17.929Z,11.85
2023-02-19T09:40:32.267Z,12.95
2023-02-19T09:41:47.952Z,7.47
2023-02-19T09:43:00.959Z,10.20
2023-02-19T09:44:39.561Z,10.13
2023-02-19T09:45:58.645Z,7.97
2023-02-19T09:47:20.444Z,7.40
2023-02-19T09:48:32.193Z,7.38
2023-02-19T09:49:49.994Z,10.05
2023-02-19T09:51:02.195Z,8.88
2023-02-19T09:52:16.827Z,9.38
2023-02-19T09:53:34.673Z,8.15
2023-02-19T09:54:46.967Z,15.80
2023-02-19T09:55:59.182Z,15.90
2023-02-19T09:57:13.846Z,12.32
2023-02-19T09:58:33.393Z,15.07
2023-02-19T09:59:59.094Z,11.95
2023-02-19T10:01:11.418Z,9.20
2023-02-19T10:02:24.613Z,12.05
2023-02-19T10:03:39.357Z,10.13
2023-02-19T10:04:51.581Z,8.57
2023-02-19T10:06:06.200Z,10.32
2023-02-19T10:07:17.672Z,11.70
2023-02-19T10:08:31.448Z,9.07
2023-02-19T10:09:45.261Z,4.45
2023-02-19T10:10:58.000Z,7.72
2023-02-19T10:12:16.310Z,5.28
2023-02-19T10:13:33.661Z,11.13
2023-02-19T10:14:47.636Z,8.02
2023-02-19T10:16:00.865Z,13.43
2023-02-19T10:17:20.887Z,10.02
2023-02-19T10:18:36.649Z,10.75
2023-02-19T10:19:48.109Z,9.70
2023-02-19T10:21:03.077Z,11.18
2023-02-19T10:22:14.557Z,11.40
2023-02-19T10:23:26.338Z,8.93
2023-02-19T10:24:38.656Z,8.75
2023-02-19T10:25:54.173Z,11.93
2023-02-19T10:27:09.458Z,8.02
2023-02-19T10:28:22.732Z,9.25
2023-02-19T10:29:34.192Z,12.88
2023-02-19T10:30:49.382Z,10.02
2023-02-19T10:32:23.914Z,11.70
2023-02-19T10:33:47.540Z,12.27
2023-02-19T10:35:16.055Z,13.15
2023-02-19T10:36:36.387Z,8.85
2023-02-19T10:37:50.108Z,9.90
2023-02-19T10:39:06.104Z,9.63
2023-02-19T10:40:19.130Z,10.68
2023-02-19T10:41:30.909Z,13.30
2023-02-19T10:42:45.685Z,13.38
2023-02-19T10:44:07.254Z,9.40
2023-02-19T10:45:20.066Z,12.35
2023-02-19T10:46:33.244Z,5.68
2023-02-19T10:47:46.462Z,8.60
2023-02-19T10:49:05.024Z,10.13
2023-02-19T10:50:39.325Z,6.47
2023-02-19T10:51:52.496Z,10.15
2023-02-19T10:53:06.253Z,8.35
2023-02-19T10:54:19.893Z,10.68
2023-02-19T10:55:32.979Z,9.13
2023-02-19T10:56:44.565Z,6.87
2023-02-19T10:57:56.531Z,6.83
2023-02-19T10:59:15.973Z,5.20
2023-02-19T11:00:30.209Z,6.03
2023-02-19T11:01:58.450Z,6.37
2023-02-19T11:03:27.878Z,4.87
2023-02-19T11:04:39.382Z,6.50
2023-02-19T11:06:01.344Z,7.90
2023-02-19T11:07:15.364Z,6.20
2023-02-19T11:08:26.834Z,6.50
2023-02-19T11:09:39.610Z,7.22
2023-02-19T11:10:51.199Z,8.77
2023-02-19T11:12:05.068Z,7.27
2023-02-19T11:13:26.819Z,6.20
2023-02-19T11:14:42.440Z,3.83
2023-02-19T11:15:55.772Z,4.43
2023-02-19T11:17:07.685Z,6.60
2023-02-19T11:18:29.974Z,6.53
2023-02-19T11:19:43.746Z,6.77
2023-02-19T11:20:59.054Z,6.57
2023-02-19T11:22:25.430Z,4.17
2023-02-19T11:23:38.566Z,9.83
2023-02-19T11:24:56.649Z,4.57
2023-02-19T11:26:18.521Z,4.97
2023-02-19T11:27:30.276Z,17.30
2023-02-19T11:28:43.305Z,7.80
2023-02-19T11:29:54.843Z,6.53
2023-02-19T11:31:21.777Z,5.50
2023-02-19T11:32:33.297Z,4.27
2023-02-19T11:33:47.450Z,4.87
2023-02-19T11:35:18.552Z,4.77
2023-02-19T11:36:34.405Z,5.90
2023-02-19T11:37:56.864Z,5.57
2023-02-19T11:39:17.431Z,4.33
2023-02-19T11:40:49.172Z,3.63
2023-02-19T11:42:12.354Z,5.20
2023-02-19T11:43:23.786Z,7.73
2023-02-19T11:44:39.306Z,3.67
2023-02-19T11:45:56.634Z,3.87
2023-02-19T11:47:11.245Z,3.37
2023-02-19T11:48:25.483Z,4.03
2023-02-19T11:49:45.896Z,5.13
2023-02-19T11:50:57.627Z,3.07
2023-02-19T11:52:23.140Z,6.40
2023-02-19T11:53:37.320Z,6.50
2023-02-19T11:54:56.281Z,4.83
2023-02-19T11:56:13.550Z,5.83
2023-02-19T11:57:48.067Z,4.83
2023-02-19T11:59:05.011Z,5.33
2023-02-19T12:00:24.978Z,6.20
2023-02-19T12:01:48.545Z,6.63
2023-02-19T12:03:03.170Z,5.23
2023-02-19T12:04:33.314Z,4.77
2023-02-19T12:06:09.820Z,6.17
2023-02-19T12:07:30.037Z,4.47
2023-02-19T12:08:50.340Z,6.83
2023-02-19T12:10:05.774Z,5.03
2023-02-19T12:11:20.046Z,6.00
2023-02-19T12:12:40.735Z,4.67
2023-02-19T12:14:01.027Z,5.63
2023-02-19T12:15:16.686Z,37.87
2023-02-19T12:16:46.695Z,36.37
2023-02-19T12:18:04.618Z,15.00
2023-02-19T12:19:19.179Z,28.10
2023-02-19T12:20:37.417Z,19.40
2023-02-19T12:22:07.647Z,185.27
2023-02-19T12:23:35.121Z,75.77
2023-02-19T12:24:47.023Z,20.97
2023-02-19T12:26:22.125Z,16.80
2023-02-19T12:27:33.578Z,14.40
2023-02-19T12:29:00.684Z,12.50
2023-02-19T12:30:27.504Z,14.00
2023-02-19T12:31:39.100Z,12.03
2023-02-19T12:33:13.874Z,9.00
2023-02-19T12:34:28.992Z,10.83
2023-02-19T12:35:43.452Z,11.60
2023-02-19T12:37:12.898Z,7.97
2023-02-19T12:38:33.515Z,13.67
2023-02-19T12:39:57.384Z,8.33
2023-02-19T12:41:17.878Z,9.57
2023-02-19T12:42:50.207Z,7.53
2023-02-19T12:44:05.726Z,7.57
2023-02-19T12:45:26.908Z,6.03
2023-02-19T12:46:39.582Z,8.20
2023-02-19T12:47:59.035Z,9.90
2023-02-19T12:49:26.184Z,6.50
2023-02-19T12:50:39.382Z,5.17
2023-02-19T12:51:55.383Z,5.27
2023-02-19T12:53:27.142Z,6.33
2023-02-19T12:54:40.917Z,3.90
2023-02-19T12:55:52.729Z,5.90
2023-02-19T12:57:04.197Z,7.80
2023-02-19T12:58:28.701Z,7.90
2023-02-19T12:59:43.133Z,6.77
2023-02-19T13:00:58.990Z,5.83
2023-02-19T13:02:20.606Z,7.30
2023-02-19T13:03:37.878Z,5.67
2023-02-19T13:04:58.175Z,5.43
2023-02-19T13:06:27.469Z,3.93
2023-02-19T13:07:43.474Z,4.47
2023-02-19T13:09:13.543Z,5.57
2023-02-19T13:10:34.008Z,3.93
2023-02-19T13:11:50.715Z,4.23
2023-02-19T13:13:06.408Z,4.90
2023-02-19T13:14:30.006Z,3.57
2023-02-19T13:15:46.377Z,4.63
2023-02-19T13:17:03.634Z,5.67
2023-02-19T13:18:20.784Z,6.30
2023-02-19T13:19:33.146Z,6.00
2023-02-19T13:20:46.631Z,8.93
2023-02-19T13:22:22.007Z,9.20
2023-02-19T13:23:56.439Z,4.83
2023-02-19T13:25:09.453Z,4.17
2023-02-19T13:26:20.915Z,3.83
2023-02-19T13:27:51.117Z,5.03
2023-02-19T13:29:21.608Z,2.67
2023-02-19T13:30:58.695Z,6.43
2023-02-19T13:32:19.111Z,4.00
2023-02-19T13:33:30.575Z,6.47
2023-02-19T13:34:51.322Z,8.07
2023-02-19T13:36:14.445Z,4.53
2023-02-19T13:37:26.291Z,6.07
2023-02-19T13:38:48.283Z,6.30
2023-02-19T13:40:18.302Z,5.37
2023-02-19T13:41:31.207Z,3.53
2023-02-19T13:43:22.347Z,7.13
2023-02-19T13:44:34.504Z,7.57
2023-02-19T13:45:46.381Z,5.13
2023-02-19T13:46:58.346Z,6.73
2023-02-19T13:48:14.176Z,7.93
2023-02-19T13:49:28.337Z,6.83
2023-02-19T13:51:06.138Z,8.37
2023-02-19T13:53:08.569Z,8.20
2023-02-19T13:54:27.364Z,19.27
2023-02-19T13:56:00.593Z,7.67
2023-02-19T13:57:28.599Z,7.33
2023-02-19T13:58:55.268Z,7.23
2023-02-19T14:00:26.748Z,6.17
2023-02-19T14:01:58.452Z,6.47
2023-02-19T14:03:28.560Z,7.40
2023-02-19T14:06:56.910Z,6.70
2023-02-19T14:09:58.270Z,10.40
2023-02-19T14:12:46.577Z,7.53
2023-02-19T14:13:59.402Z,9.13
2023-02-19T14:15:29.707Z,10.23
2023-02-19T14:16:41.481Z,8.20
2023-02-19T14:17:55.281Z,8.67
2023-02-19T14:19:38.727Z,8.50
2023-02-19T14:21:05.875Z,8.13
2023-02-19T14:22:36.187Z,5.43
2023-02-19T14:23:52.381Z,7.63
2023-02-19T14:25:06.844Z,8.20
2023-02-19T14:26:18.466Z,12.13
2023-02-19T14:27:29.991Z,7.97
2023-02-19T14:28:44.331Z,10.83
2023-02-19T14:29:55.905Z,8.90
2023-02-19T14:31:10.798Z,7.53
2023-02-19T14:32:22.609Z,6.70
2023-02-19T14:33:35.814Z,6.50
2023-02-19T14:34:47.372Z,7.47
2023-02-19T14:36:17.396Z,7.30
2023-02-19T14:37:28.944Z,12.57
2023-02-19T14:38:47.955Z,6.97
2023-02-19T14:39:59.420Z,7.90
2023-02-19T14:41:12.581Z,5.10
2023-02-19T14:42:27.694Z,9.93
2023-02-19T14:43:39.601Z,7.83
2023-02-19T14:44:53.255Z,10.13
2023-02-19T14:46:09.738Z,8.73
2023-02-19T14:47:22.589Z,5.83
2023-02-19T14:48:37.697Z,3.90
2023-02-19T14:49:55.247Z,7.57
2023-02-19T14:51:09.081Z,7.10
2023-02-19T14:52:22.703Z,6.93
2023-02-19T14:53:37.850Z,5.50
2023-02-19T14:55:06.388Z,3.37
2023-02-19T14:56:20.815Z,2.53
2023-02-19T14:57:51.306Z,3.93
2023-02-19T14:59:20.967Z,3.50
2023-02-19T15:00:37.385Z,4.50
2023-02-19T15:02:14.860Z,6.10
2023-02-19T15:03:32.135Z,3.03
2023-02-19T15:04:43.683Z,3.43
2023-02-19T15:06:03.147Z,4.33
2023-02-19T15:07:17.422Z,2.80
2023-02-19T15:08:37.081Z,4.17
2023-02-19T15:09:49.910Z,2.33
2023-02-19T15:11:02.391Z,3.20
2023-02-19T15:12:25.185Z,4.60
2023-02-19T15:13:37.696Z,6.13
2023-02-19T15:14:51.093Z,7.03
2023-02-19T15:16:02.687Z,9.37
2023-02-19T15:17:25.211Z,7.20
2023-02-19T15:18:37.667Z,5.47
2023-02-19T15:19:49.132Z,3.73
2023-02-19T15:21:02.235Z,2.87
2023-02-19T15:22:19.851Z,3.17
2023-02-19T15:23:32.959Z,1.80
2023-02-19T15:24:48.253Z,2.87
2023-02-19T15:26:00.471Z,5.53
2023-02-19T15:27:16.684Z,4.20
2023-02-19T15:28:30.248Z,2.37
2023-02-19T15:29:45.309Z,5.50
2023-02-19T15:30:56.855Z,7.00
2023-02-19T15:32:16.024Z,8.20
2023-02-19T15:33:28.141Z,4.63
2023-02-19T15:34:42.038Z,19.73
2023-02-19T15:35:55.190Z,6.00
2023-02-19T15:37:07.910Z,12.47
2023-02-19T15:38:19.600Z,10.07
2023-02-19T15:39:34.899Z,19.67
2023-02-19T15:40:47.318Z,33.50
2023-02-19T15:42:00.598Z,42.80
2023-02-19T15:43:24.179Z,11.90
2023-02-19T15:44:35.666Z,6.37
2023-02-19T15:45:47.481Z,5.60
2023-02-19T15:47:00.491Z,6.23
2023-02-19T15:48:14.911Z,11.50
2023-02-19T15:49:31.250Z,14.40
2023-02-19T15:50:46.396Z,13.67
2023-02-19T15:52:00.961Z,6.63
2023-02-19T15:53:25.993Z,5.77
2023-02-19T15:55:00.489Z,6.57
2023-02-19T15:56:28.136Z,4.33
2023-02-19T15:57:42.636Z,12.27
2023-02-19T15:58:59.683Z,16.90
2023-02-19T16:00:18.133Z,40.80
2023-02-19T16:01:30.927Z,49.03
2023-02-19T16:02:44.816Z,40.63
2023-02-19T16:03:57.045Z,18.83
2023-02-19T16:05:12.450Z,10.70
2023-02-19T16:06:25.353Z,8.13
2023-02-19T16:07:36.892Z,12.37
2023-02-19T16:09:01.824Z,13.67
2023-02-19T16:10:19.006Z,10.97
2023-02-19T16:11:38.087Z,19.83
2023-02-19T16:12:56.857Z,21.37
2023-02-19T16:14:23.753Z,18.77
2023-02-19T16:15:35.874Z,19.93
2023-02-19T16:16:48.840Z,20.67
2023-02-19T16:18:00.710Z,25.23
2023-02-19T16:19:12.467Z,14.40
2023-02-19T16:20:26.312Z,10.97
2023-02-19T16:21:38.057Z,9.93
2023-02-19T16:22:49.924Z,12.10
2023-02-19T16:24:07.383Z,8.50
2023-02-19T16:25:24.851Z,14.10
2023-02-19T16:26:40.350Z,13.80
2023-02-19T16:27:53.245Z,9.53
2023-02-19T16:29:04.692Z,12.07